createdAt,value
2019-03-01T00:02:20.018Z,28.17
2019-03-01T00:04:50.002Z,35.33
2019-03-01T00:07:34.865Z,34.40
2019-03-01T00:10:13.480Z,27.43
2019-03-01T00:12:43.462Z,27.13
2019-03-01T00:15:22.443Z,22.83
2019-03-01T00:17:52.455Z,30.80
2019-03-01T00:20:39.320Z,24.07
2019-03-01T00:23:18.548Z,26.43
2019-03-01T00:25:51.568Z,24.60
2019-03-01T00:28:30.652Z,30.57
2019-03-01T00:31:03.477Z,34.67
2019-03-01T00:33:48.654Z,35.37
2019-03-01T00:36:24.317Z,34.47
2019-03-01T00:38:56.966Z,23.47
2019-03-01T00:41:26.949Z,24.93
2019-03-01T00:44:09.041Z,29.97
2019-03-01T00:46:37.400Z,33.27
2019-03-01T00:49:05.753Z,27.13
2019-03-01T00:51:34.088Z,35.53
2019-03-01T00:54:02.437Z,33.33
2019-03-01T00:56:30.789Z,33.37
2019-03-01T00:58:59.705Z,34.87
2019-03-01T01:01:28.052Z,35.73
2019-03-01T01:03:56.397Z,38.47
2019-03-01T01:06:24.749Z,39.87
2019-03-01T01:08:53.094Z,38.17
2019-03-01T01:11:21.514Z,37.53
2019-03-01T01:13:49.857Z,43.83
2019-03-01T01:16:18.222Z,43.37
2019-03-01T01:18:46.575Z,44.57
2019-03-01T01:21:14.924Z,40.03
2019-03-01T01:23:43.295Z,40.43
2019-03-01T01:26:12.614Z,40.63
2019-03-01T01:28:40.958Z,43.97
2019-03-01T01:31:09.336Z,36.20
2019-03-01T01:33:37.679Z,52.27
2019-03-01T01:36:06.030Z,53.93
2019-03-01T01:38:34.381Z,56.00
2019-03-01T01:41:02.726Z,45.90
2019-03-01T01:43:31.075Z,65.37
2019-03-01T01:45:59.410Z,51.43
2019-03-01T01:48:28.065Z,52.80
2019-03-01T01:50:56.419Z,57.23
2019-03-01T01:53:24.762Z,44.17
2019-03-01T01:55:53.122Z,58.00
2019-03-01T01:58:21.486Z,52.90
2019-03-01T02:00:49.886Z,57.90
2019-03-01T02:03:18.234Z,57.67
2019-03-01T02:05:46.583Z,51.43
2019-03-01T02:08:14.925Z,60.33
2019-03-01T02:10:44.357Z,75.83
2019-03-01T02:13:12.699Z,67.97
2019-03-01T02:15:41.062Z,93.77
2019-03-01T02:18:09.397Z,79.50
2019-03-01T02:20:37.741Z,92.63
2019-03-01T02:23:06.097Z,96.90
2019-03-01T02:25:34.442Z,86.87
2019-03-01T02:28:02.802Z,100.33
2019-03-01T02:30:38.342Z,111.57
2019-03-01T02:33:06.701Z,123.57
2019-03-01T02:35:35.056Z,145.70
2019-03-01T02:38:03.405Z,109.93
2019-03-01T02:40:33.388Z,131.47
2019-03-01T02:43:01.766Z,144.70
2019-03-01T02:45:30.178Z,170.27
2019-03-01T02:47:58.531Z,143.93
2019-03-01T02:50:26.902Z,156.20
2019-03-01T02:52:55.253Z,137.50
2019-03-01T02:55:23.603Z,147.17
2019-03-01T02:57:51.962Z,132.23
2019-03-01T03:00:24.398Z,134.47
2019-03-01T03:02:52.826Z,135.80
2019-03-01T03:05:22.442Z,137.33
2019-03-01T03:07:52.438Z,135.00
2019-03-01T03:10:21.953Z,110.57
2019-03-01T03:12:51.957Z,112.83
2019-03-01T03:15:21.958Z,127.13
2019-03-01T03:17:50.318Z,90.23
2019-03-01T03:20:18.650Z,90.17
2019-03-01T03:22:47.974Z,89.17
2019-03-01T03:25:16.337Z,92.47
2019-03-01T03:27:44.982Z,81.77
2019-03-01T03:30:14.964Z,92.73
2019-03-01T03:32:43.298Z,69.20
2019-03-01T03:35:11.669Z,97.20
2019-03-01T03:37:40.086Z,87.53
2019-03-01T03:40:11.921Z,86.03
2019-03-01T03:42:40.260Z,95.97
2019-03-01T03:45:10.234Z,101.37
2019-03-01T03:47:38.598Z,92.67
2019-03-01T03:50:08.560Z,94.03
2019-03-01T03:52:36.979Z,98.37
2019-03-01T03:55:06.214Z,109.93
2019-03-01T03:57:34.554Z,99.17
2019-03-01T04:00:03.578Z,101.40
2019-03-01T04:02:32.014Z,109.13
2019-03-01T04:05:00.449Z,109.13
2019-03-01T04:07:28.798Z,113.80
2019-03-01T04:09:57.151Z,115.47
2019-03-01T04:12:25.509Z,114.87
2019-03-01T04:14:53.862Z,115.67
2019-03-01T04:17:22.227Z,136.90
2019-03-01T04:19:50.585Z,123.57
2019-03-01T04:22:18.950Z,109.23
2019-03-01T04:24:47.306Z,111.53
2019-03-01T04:27:15.659Z,124.23
2019-03-01T04:29:44.011Z,117.23
2019-03-01T04:32:12.382Z,140.57
2019-03-01T04:34:40.731Z,122.03
2019-03-01T04:37:09.081Z,125.77
2019-03-01T04:39:37.425Z,128.50
2019-03-01T04:42:05.850Z,138.30
2019-03-01T04:44:34.289Z,122.60
2019-03-01T04:47:02.638Z,136.07
2019-03-01T04:49:30.994Z,122.50
2019-03-01T04:51:59.351Z,154.13
2019-03-01T04:54:27.701Z,114.67
2019-03-01T04:56:56.060Z,133.03
2019-03-01T04:59:25.673Z,166.80
2019-03-01T05:01:54.028Z,138.90
2019-03-01T05:04:23.665Z,111.27
2019-03-01T05:06:52.010Z,138.73
2019-03-01T05:09:20.370Z,146.87
2019-03-01T05:11:48.730Z,127.63
2019-03-01T05:14:17.155Z,146.27
2019-03-01T05:16:45.510Z,125.90
2019-03-01T05:19:13.849Z,97.77
2019-03-01T05:21:42.213Z,125.33
2019-03-01T05:24:10.574Z,119.27
2019-03-01T05:26:40.014Z,126.67
2019-03-01T05:29:08.360Z,129.90
2019-03-01T05:31:36.721Z,111.00
2019-03-01T05:34:05.066Z,116.53
2019-03-01T05:36:33.421Z,99.70
2019-03-01T05:39:01.776Z,124.20
2019-03-01T05:41:31.917Z,94.93
2019-03-01T05:44:00.253Z,119.13
2019-03-01T05:46:28.598Z,113.03
2019-03-01T05:48:56.954Z,120.10
2019-03-01T05:51:25.300Z,120.43
2019-03-01T05:53:53.661Z,113.17
2019-03-01T05:56:22.014Z,128.07
2019-03-01T05:58:52.024Z,119.73
2019-03-01T06:01:27.960Z,106.70
2019-03-01T06:03:57.953Z,122.07
2019-03-01T06:06:33.622Z,124.03
2019-03-01T06:09:04.577Z,138.13
2019-03-01T06:11:44.906Z,122.60
2019-03-01T06:14:17.917Z,119.43
2019-03-01T06:16:50.913Z,136.90
2019-03-01T06:19:26.602Z,122.33
2019-03-01T06:22:05.739Z,100.90
2019-03-01T06:24:35.730Z,112.93
2019-03-01T06:27:08.637Z,126.33
2019-03-01T06:29:56.485Z,131.70
2019-03-01T06:32:26.469Z,106.53
2019-03-01T06:34:56.458Z,138.37
2019-03-01T06:37:41.858Z,122.40
2019-03-01T06:40:48.120Z,127.50
2019-03-01T06:43:31.734Z,126.90
2019-03-01T06:46:22.912Z,102.10
2019-03-01T06:48:56.165Z,103.03
2019-03-01T06:51:29.112Z,117.00
2019-03-01T06:54:00.592Z,126.50
2019-03-01T06:56:35.321Z,135.20
2019-03-01T06:59:09.002Z,133.23
2019-03-01T07:01:37.474Z,133.00
2019-03-01T07:04:08.464Z,150.37
2019-03-01T07:06:40.972Z,149.43
2019-03-01T07:09:10.655Z,148.37
2019-03-01T07:11:40.766Z,151.30
2019-03-01T07:14:09.112Z,147.67
2019-03-01T07:16:37.477Z,161.93
2019-03-01T07:19:05.832Z,145.40
2019-03-01T07:21:34.181Z,158.30
2019-03-01T07:24:10.703Z,152.93
2019-03-01T07:26:41.645Z,163.27
2019-03-01T07:29:10.642Z,178.80
2019-03-01T07:31:42.479Z,164.23
2019-03-01T07:34:14.543Z,174.37
2019-03-01T07:36:48.762Z,140.30
2019-03-01T07:39:20.965Z,161.20
2019-03-01T07:41:49.620Z,155.47
2019-03-01T07:44:22.400Z,178.67
2019-03-01T07:46:54.273Z,166.70
2019-03-01T07:49:25.050Z,176.90
2019-03-01T07:51:57.421Z,153.33
2019-03-01T07:54:31.811Z,177.40
2019-03-01T07:57:11.499Z,161.50
2019-03-01T07:59:41.831Z,164.57
2019-03-01T08:02:12.384Z,179.37
2019-03-01T08:04:42.676Z,139.17
2019-03-01T08:07:13.107Z,148.80
2019-03-01T08:09:44.659Z,151.17
2019-03-01T08:12:11.546Z,135.30
2019-03-01T08:14:40.005Z,141.73
2019-03-01T08:17:08.357Z,106.27
2019-03-01T08:19:36.713Z,111.20
2019-03-01T08:22:10.274Z,82.47
2019-03-01T08:24:42.744Z,57.93
2019-03-01T08:27:16.551Z,54.30
2019-03-01T08:29:50.361Z,38.57
2019-03-01T08:32:20.307Z,32.40
2019-03-01T08:34:54.512Z,29.60
2019-03-01T08:37:24.839Z,20.93
2019-03-01T08:39:53.600Z,25.77
2019-03-01T08:42:21.963Z,24.00
2019-03-01T08:45:08.316Z,22.67
2019-03-01T08:47:32.925Z,25.03
2019-03-01T08:50:01.273Z,22.33
2019-03-01T08:52:37.172Z,19.53
2019-03-01T08:55:11.867Z,18.33
2019-03-01T08:57:50.187Z,15.33
2019-03-01T09:00:27.025Z,16.07
2019-03-01T09:03:00.750Z,19.80
2019-03-01T09:05:29.181Z,15.37
2019-03-01T09:07:57.524Z,16.90
2019-03-01T09:10:29.140Z,13.13
2019-03-01T09:12:58.585Z,13.27
2019-03-01T09:15:33.823Z,9.47
2019-03-01T09:18:07.161Z,9.93
2019-03-01T09:20:44.304Z,13.57
2019-03-01T09:23:24.377Z,16.03
2019-03-01T09:25:49.780Z,17.07
2019-03-01T09:28:19.200Z,16.67
2019-03-01T09:30:54.047Z,17.77
2019-03-01T09:33:31.505Z,18.30
2019-03-01T09:36:10.454Z,16.53
2019-03-01T09:38:43.677Z,21.00
2019-03-01T09:41:19.172Z,20.50
2019-03-01T09:43:51.918Z,17.10
2019-03-01T09:46:27.498Z,15.60
2019-03-01T09:49:08.258Z,17.60
2019-03-01T09:51:36.604Z,14.00
2019-03-01T09:54:06.465Z,19.37
2019-03-01T09:56:43.630Z,13.97
2019-03-01T09:59:11.974Z,17.77
2019-03-01T10:01:45.003Z,14.97
2019-03-01T10:04:15.216Z,17.93
2019-03-01T10:06:43.546Z,14.10
2019-03-01T10:09:12.860Z,17.60
2019-03-01T10:11:41.202Z,13.40
2019-03-01T10:14:12.662Z,13.60
2019-03-01T10:16:40.995Z,16.87
2019-03-01T10:19:10.971Z,9.57
2019-03-01T10:21:39.303Z,14.57
2019-03-01T10:24:13.052Z,13.43
2019-03-01T10:26:45.806Z,9.43
2019-03-01T10:29:14.133Z,18.67
2019-03-01T10:31:44.348Z,17.97
2019-03-01T10:34:15.042Z,15.17
2019-03-01T10:36:47.830Z,10.57
2019-03-01T10:39:38.385Z,13.87
2019-03-01T10:42:14.222Z,15.70
2019-03-01T10:44:48.361Z,15.37
2019-03-01T10:47:18.713Z,12.00
2019-03-01T10:49:51.052Z,12.87
2019-03-01T10:52:21.710Z,14.53
2019-03-01T10:54:57.698Z,13.63
2019-03-01T10:57:33.378Z,11.77
2019-03-01T11:00:09.285Z,13.93
2019-03-01T11:02:45.358Z,17.63
2019-03-01T11:05:16.520Z,11.80
2019-03-01T11:07:51.331Z,11.13
2019-03-01T11:10:39.971Z,17.03
2019-03-01T11:13:15.633Z,12.33
2019-03-01T11:15:58.518Z,14.90
2019-03-01T11:18:22.886Z,14.60
2019-03-01T11:20:51.246Z,9.83
2019-03-01T11:23:27.046Z,13.70
2019-03-01T11:25:59.791Z,11.10
2019-03-01T11:28:30.301Z,13.40
2019-03-01T11:30:58.640Z,12.27
2019-03-01T11:33:26.974Z,13.07
2019-03-01T11:35:57.134Z,8.90
2019-03-01T11:38:27.247Z,11.40
2019-03-01T11:41:03.084Z,11.33
2019-03-01T11:43:36.070Z,12.17
2019-03-01T11:46:05.593Z,13.27
2019-03-01T11:48:35.569Z,13.70
2019-03-01T11:51:08.961Z,15.03
2019-03-01T11:53:38.503Z,11.20
2019-03-01T11:56:07.602Z,12.80
2019-03-01T11:58:40.515Z,14.53
2019-03-01T12:01:16.834Z,253.07
2019-03-01T12:03:38.963Z,104.30
2019-03-01T12:06:07.647Z,135.13
2019-03-01T12:08:49.971Z,112.77
2019-03-01T12:11:19.905Z,111.20
2019-03-01T12:13:48.254Z,99.30
2019-03-01T12:16:16.606Z,93.07
2019-03-01T12:18:44.956Z,63.83
2019-03-01T12:21:13.311Z,23.00
2019-03-01T12:23:48.603Z,29.50
2019-03-01T12:26:20.848Z,33.50
2019-03-01T12:28:49.188Z,64.00
2019-03-01T12:31:17.528Z,40.90
2019-03-01T12:33:45.878Z,31.83
2019-03-01T12:36:17.503Z,19.63
2019-03-01T12:38:52.012Z,10.47
2019-03-01T12:41:21.949Z,10.90
2019-03-01T12:43:52.446Z,11.87
2019-03-01T12:46:22.383Z,12.53
2019-03-01T12:48:53.278Z,10.70
2019-03-01T12:51:22.826Z,20.33
2019-03-01T12:53:52.865Z,9.53
2019-03-01T12:56:21.209Z,10.70
2019-03-01T12:58:52.774Z,10.37
2019-03-01T13:01:23.738Z,3.80
2019-03-01T13:03:53.381Z,9.20
2019-03-01T13:06:21.705Z,12.33
2019-03-01T13:08:51.349Z,7.63
2019-03-01T13:11:21.166Z,7.00
2019-03-01T13:13:49.498Z,5.47
2019-03-01T13:16:17.842Z,6.97
2019-03-01T13:18:51.484Z,7.07
2019-03-01T13:21:18.166Z,7.20
2019-03-01T13:23:46.508Z,8.30
2019-03-01T13:26:14.851Z,7.47
2019-03-01T13:28:43.788Z,10.63
2019-03-01T13:31:13.223Z,8.23
2019-03-01T13:33:41.581Z,14.40
2019-03-01T13:36:10.186Z,8.63
2019-03-01T13:38:38.517Z,7.37
2019-03-01T13:41:06.874Z,8.53
2019-03-01T13:43:35.195Z,9.23
2019-03-01T13:46:05.174Z,18.07
2019-03-01T13:48:33.524Z,14.63
2019-03-01T13:51:02.024Z,30.87
2019-03-01T13:53:34.319Z,9.33
2019-03-01T13:56:04.332Z,7.03
2019-03-01T13:58:33.051Z,7.37
2019-03-01T14:01:01.371Z,5.10
2019-03-01T14:03:30.871Z,10.93
2019-03-01T14:05:59.215Z,10.77
2019-03-01T14:08:30.198Z,18.10
2019-03-01T14:10:59.944Z,19.47
2019-03-01T14:13:29.237Z,7.53
2019-03-01T14:15:58.871Z,6.37
2019-03-01T14:18:27.488Z,5.73
2019-03-01T14:20:57.970Z,6.57
2019-03-01T14:23:27.477Z,6.57
2019-03-01T14:25:59.152Z,3.93
2019-03-01T14:28:27.520Z,6.17
2019-03-01T14:30:56.630Z,9.90
2019-03-01T14:33:25.893Z,5.40
2019-03-01T14:35:59.259Z,4.17
2019-03-01T14:38:29.996Z,4.57
2019-03-01T14:40:59.754Z,7.87
2019-03-01T14:43:32.509Z,5.40
2019-03-01T14:46:01.880Z,3.87
2019-03-01T14:48:34.221Z,4.07
2019-03-01T14:51:10.813Z,2.33
2019-03-01T14:53:41.565Z,2.70
2019-03-01T14:56:12.694Z,5.33
2019-03-01T14:58:48.741Z,4.57
2019-03-01T15:01:26.669Z,4.20
2019-03-01T15:03:56.001Z,3.63
2019-03-01T15:06:26.418Z,6.27
2019-03-01T15:09:00.295Z,3.53
2019-03-01T15:11:30.902Z,5.50
2019-03-01T15:14:00.772Z,6.83
2019-03-01T15:16:35.699Z,6.80
2019-03-01T15:19:08.049Z,4.07
2019-03-01T15:21:38.438Z,5.90
2019-03-01T15:24:09.275Z,8.83
2019-03-01T15:26:53.887Z,3.10
2019-03-01T15:29:28.175Z,7.53
2019-03-01T15:32:00.013Z,7.53
2019-03-01T15:34:37.622Z,3.63
2019-03-01T15:37:07.539Z,7.23
2019-03-01T15:39:43.938Z,2.83
2019-03-01T15:42:25.025Z,4.13
2019-03-01T15:44:57.433Z,4.80
2019-03-01T15:47:34.259Z,7.93
2019-03-01T15:50:02.222Z,3.07
2019-03-01T15:52:35.778Z,3.53
2019-03-01T15:55:12.903Z,4.43
2019-03-01T15:57:47.057Z,3.67
2019-03-01T16:00:25.497Z,4.30
2019-03-01T16:03:03.086Z,6.47
2019-03-01T16:05:34.223Z,5.73
2019-03-01T16:08:08.251Z,6.77
2019-03-01T16:10:38.370Z,6.87
2019-03-01T16:13:15.494Z,3.73
2019-03-01T16:15:46.783Z,5.83
2019-03-01T16:18:15.145Z,4.67
2019-03-01T16:20:43.471Z,4.57
2019-03-01T16:23:12.071Z,3.20
2019-03-01T16:25:40.756Z,4.57
2019-03-01T16:28:09.073Z,3.70
2019-03-01T16:30:37.453Z,4.27
2019-03-01T16:33:05.997Z,2.27
2019-03-01T16:35:34.659Z,3.20
2019-03-01T16:38:04.475Z,3.13
2019-03-01T16:40:32.802Z,4.27
2019-03-01T16:43:01.147Z,1.87
2019-03-01T16:45:29.491Z,1.90
2019-03-01T16:47:57.889Z,4.90
2019-03-01T16:50:29.063Z,3.07
2019-03-01T16:52:57.396Z,3.80
2019-03-01T16:55:28.794Z,2.43
2019-03-01T16:58:06.770Z,2.67
2019-03-01T17:00:29.293Z,1.60
2019-03-01T17:02:59.262Z,1.53
2019-03-01T17:05:27.605Z,3.10
2019-03-01T17:07:55.952Z,4.13
2019-03-01T17:10:26.554Z,3.10
2019-03-01T17:12:54.342Z,1.53
2019-03-01T17:15:23.422Z,1.43
2019-03-01T17:17:51.768Z,2.60
2019-03-01T17:20:20.105Z,3.90
2019-03-01T17:22:48.477Z,2.00
2019-03-01T17:25:19.311Z,3.00
2019-03-01T17:27:49.459Z,4.00
2019-03-01T17:30:23.776Z,4.23
2019-03-01T17:32:52.113Z,1.90
2019-03-01T17:35:20.576Z,4.20
2019-03-01T17:37:48.922Z,2.27
2019-03-01T17:40:17.634Z,2.23
2019-03-01T17:42:47.108Z,2.03
2019-03-01T17:45:20.984Z,2.60
2019-03-01T17:47:50.010Z,4.37
2019-03-01T17:50:19.598Z,2.50
2019-03-01T17:52:48.603Z,7.13
2019-03-01T17:55:24.590Z,4.13
2019-03-01T17:57:53.293Z,3.50
2019-03-01T18:00:27.467Z,1.90
2019-03-01T18:02:56.907Z,1.23
2019-03-01T18:05:25.251Z,2.00
2019-03-01T18:07:53.591Z,1.57
2019-03-01T18:10:21.941Z,3.97
2019-03-01T18:12:53.058Z,1.40
2019-03-01T18:15:20.307Z,3.63
2019-03-01T18:17:48.642Z,3.70
2019-03-01T18:20:16.979Z,4.80
2019-03-01T18:22:45.294Z,1.30
2019-03-01T18:25:14.286Z,3.40
2019-03-01T18:27:43.675Z,7.33
2019-03-01T18:30:19.840Z,6.30
2019-03-01T18:32:46.595Z,2.43
2019-03-01T18:35:14.931Z,2.57
2019-03-01T18:37:43.257Z,2.37
2019-03-01T18:40:13.389Z,3.37
2019-03-01T18:42:42.190Z,4.00
2019-03-01T18:45:11.986Z,2.47
2019-03-01T18:47:40.398Z,2.50
2019-03-01T18:50:16.589Z,2.10
2019-03-01T18:52:44.924Z,7.00
2019-03-01T18:55:13.745Z,4.80
2019-03-01T18:57:43.578Z,7.40
2019-03-01T19:00:18.885Z,3.00
2019-03-01T19:02:47.293Z,1.67
2019-03-01T19:05:15.618Z,1.40
2019-03-01T19:07:43.953Z,3.10
2019-03-01T19:10:13.913Z,3.10
2019-03-01T19:12:44.832Z,4.97
2019-03-01T19:15:15.460Z,6.10
2019-03-01T19:17:44.588Z,4.53
2019-03-01T19:20:14.745Z,12.47
2019-03-01T19:22:43.073Z,8.77
2019-03-01T19:25:12.190Z,7.73
2019-03-01T19:27:40.570Z,6.13
2019-03-01T19:30:13.295Z,6.80
2019-03-01T19:32:40.562Z,5.50
2019-03-01T19:35:09.666Z,4.13
2019-03-01T19:37:38.010Z,8.33
2019-03-01T19:40:16.582Z,6.70
2019-03-01T19:42:44.986Z,5.73
2019-03-01T19:45:14.605Z,9.73
2019-03-01T19:47:42.950Z,5.60
2019-03-01T19:50:12.249Z,6.00
2019-03-01T19:52:43.509Z,5.63
2019-03-01T19:55:13.089Z,9.63
2019-03-01T19:57:41.883Z,4.43
2019-03-01T20:00:12.051Z,4.37
2019-03-01T20:02:41.559Z,5.03
2019-03-01T20:05:11.362Z,4.67
2019-03-01T20:07:39.689Z,3.73
2019-03-01T20:10:14.967Z,5.90
2019-03-01T20:12:42.238Z,4.73
2019-03-01T20:15:14.896Z,3.47
2019-03-01T20:17:44.683Z,3.70
2019-03-01T20:20:14.902Z,10.60
2019-03-01T20:22:43.246Z,5.57
2019-03-01T20:25:12.766Z,8.03
2019-03-01T20:27:42.670Z,6.73
2019-03-01T20:30:18.659Z,6.13
2019-03-01T20:32:47.451Z,4.97
2019-03-01T20:35:17.042Z,3.47
2019-03-01T20:37:46.614Z,5.40
2019-03-01T20:40:15.126Z,6.03
2019-03-01T20:42:43.736Z,3.53
2019-03-01T20:45:14.046Z,2.43
2019-03-01T20:47:42.382Z,4.13
2019-03-01T20:50:11.898Z,3.30
2019-03-01T20:52:40.893Z,3.90
2019-03-01T20:55:09.987Z,3.23
2019-03-01T20:57:38.327Z,4.97
2019-03-01T21:00:08.294Z,4.87
2019-03-01T21:02:38.225Z,6.10
2019-03-01T21:05:12.082Z,5.13
2019-03-01T21:07:40.736Z,3.50
2019-03-01T21:10:16.991Z,7.93
2019-03-01T21:12:45.503Z,8.33
2019-03-01T21:15:14.809Z,6.93
2019-03-01T21:17:43.142Z,4.53
2019-03-01T21:20:12.250Z,4.70
2019-03-01T21:22:41.006Z,3.73
2019-03-01T21:25:10.766Z,5.57
2019-03-01T21:27:39.105Z,5.63
2019-03-01T21:30:10.111Z,5.13
2019-03-01T21:32:38.577Z,5.97
2019-03-01T21:35:06.901Z,6.00
2019-03-01T21:37:39.809Z,4.70
2019-03-01T21:40:09.621Z,4.23
2019-03-01T21:42:37.977Z,5.40
2019-03-01T21:45:12.538Z,4.57
2019-03-01T21:47:44.646Z,4.90
2019-03-01T21:50:16.987Z,4.57
2019-03-01T21:52:46.393Z,6.90
2019-03-01T21:55:16.074Z,6.03
2019-03-01T21:57:45.585Z,4.20
2019-03-01T22:00:18.370Z,3.40
2019-03-01T22:02:48.791Z,4.47
2019-03-01T22:05:16.803Z,3.20
2019-03-01T22:07:45.163Z,5.00
2019-03-01T22:10:15.034Z,4.30
2019-03-01T22:12:43.388Z,3.40
2019-03-01T22:15:13.356Z,3.23
2019-03-01T22:17:41.758Z,2.77
2019-03-01T22:20:10.474Z,3.10
2019-03-01T22:22:38.893Z,5.17
2019-03-01T22:25:10.869Z,3.23
2019-03-01T22:27:39.209Z,2.93
2019-03-01T22:30:09.401Z,3.97
2019-03-01T22:32:37.758Z,3.10
2019-03-01T22:35:08.539Z,2.67
2019-03-01T22:37:36.124Z,3.20
2019-03-01T22:40:06.094Z,4.00
2019-03-01T22:42:34.425Z,4.37
2019-03-01T22:45:03.130Z,4.40
2019-03-01T22:47:32.484Z,5.27
2019-03-01T22:50:04.063Z,7.07
2019-03-01T22:52:31.516Z,4.83
2019-03-01T22:55:01.622Z,6.40
2019-03-01T22:57:29.905Z,4.10
2019-03-01T22:59:59.893Z,5.70
2019-03-01T23:02:28.293Z,8.73
2019-03-01T23:04:56.613Z,6.93
2019-03-01T23:07:26.357Z,5.23
2019-03-01T23:09:54.974Z,4.17
2019-03-01T23:12:23.323Z,5.17
2019-03-01T23:14:51.646Z,5.80
2019-03-01T23:17:19.980Z,7.67
2019-03-01T23:19:51.674Z,6.83
2019-03-01T23:22:18.334Z,7.70
2019-03-01T23:24:46.676Z,8.57
2019-03-01T23:27:15.066Z,5.80
2019-03-01T23:29:43.404Z,6.10
2019-03-01T23:32:15.159Z,6.07
2019-03-01T23:34:42.495Z,6.83
2019-03-01T23:37:11.274Z,10.13
2019-03-01T23:39:39.616Z,9.27
2019-03-01T23:42:07.966Z,8.03
2019-03-01T23:44:38.680Z,7.87
2019-03-01T23:47:07.558Z,6.27
2019-03-01T23:49:35.894Z,5.83
2019-03-01T23:52:04.223Z,13.17
2019-03-01T23:54:32.574Z,6.33
2019-03-01T23:57:01.916Z,7.60
2019-03-01T23:59:30.931Z,5.97
